Terminal Aerodrome Forecast
Issued by NWS Goodland, KS

Home | Current Version | Previous Version | Text Only | Print | Product List | Glossary On
Versions: 1 2 3 4 5 6 7 8 9 10 11 12 13 14 15 16 17 18 19 20 21 22 23
148
FTUS43 KGLD 250540
TAFGLD
TAF
KGLD 250540Z 2506/2606 VRB05KT P6SM FEW070 BKN120
     FM251500 05008KT P6SM FEW025 BKN070
     FM251800 08010KT P6SM SCT025 BKN050
     FM260200 12007KT P6SM BKN015=

USA.gov is the U.S. government's official web portal to all federal, state and local government web resources and services.